sensor_id;sensor_type;location;lat;lon;timestamp;pressure;altitude;pressure_sealevel;temperature;humidity
70343;BME280;57767;42.068;24.752;2023-06-04T00:00:47;98981.34;;;18.88;73.54
70343;BME280;57767;42.068;24.752;2023-06-04T00:01:49;98989.09;;;18.85;73.01
70343;BME280;57767;42.068;24.752;2023-06-04T00:02:51;98986.16;;;18.86;72.97
70343;BME280;57767;42.068;24.752;2023-06-04T00:03:53;98985.63;;;18.89;73.14
70343;BME280;57767;42.068;24.752;2023-06-04T00:04:56;98988.84;;;18.91;72.96
70343;BME280;57767;42.068;24.752;2023-06-04T00:05:57;98991.81;;;18.95;72.83
70343;BME280;57767;42.068;24.752;2023-06-04T00:06:59;98988.09;;;18.96;72.94
70343;BME280;57767;42.068;24.752;2023-06-04T00:08:01;98982.47;;;18.98;72.25
70343;BME280;57767;42.068;24.752;2023-06-04T00:09:03;98976.53;;;18.90;71.16
70343;BME280;57767;42.068;24.752;2023-06-04T00:10:05;98978.94;;;18.92;71.31
70343;BME280;57767;42.068;24.752;2023-06-04T00:11:07;98992.38;;;19.02;71.70
70343;BME280;57767;42.068;24.752;2023-06-04T00:12:09;98991.84;;;19.00;71.54
70343;BME280;57767;42.068;24.752;2023-06-04T00:13:11;98987.81;;;18.98;72.09
70343;BME280;57767;42.068;24.752;2023-06-04T00:14:13;98983.50;;;18.91;72.32
70343;BME280;57767;42.068;24.752;2023-06-04T00:15:16;98972.19;;;18.79;72.00
70343;BME280;57767;42.068;24.752;2023-06-04T00:16:18;98990.16;;;18.89;71.73
70343;BME280;57767;42.068;24.752;2023-06-04T00:17:20;98986.16;;;18.91;71.00
70343;BME280;57767;42.068;24.752;2023-06-04T00:18:22;98987.78;;;18.92;71.03
70343;BME280;57767;42.068;24.752;2023-06-04T00:19:24;98989.66;;;18.92;70.50
70343;BME280;57767;42.068;24.752;2023-06-04T00:20:25;98959.81;;;18.68;70.63
70343;BME280;57767;42.068;24.752;2023-06-04T00:21:27;98984.25;;;18.82;70.39
70343;BME280;57767;42.068;24.752;2023-06-04T00:22:29;98988.00;;;18.81;70.65
70343;BME280;57767;42.068;24.752;2023-06-04T00:23:31;98953.91;;;18.61;70.49
70343;BME280;57767;42.068;24.752;2023-06-04T00:24:34;98933.44;;;18.50;70.19
70343;BME280;57767;42.068;24.752;2023-06-04T00:25:36;98954.16;;;18.59;69.87
70343;BME280;57767;42.068;24.752;2023-06-04T00:26:38;98992.78;;;18.74;69.94
70343;BME280;57767;42.068;24.752;2023-06-04T00:27:40;98987.13;;;18.70;69.79
70343;BME280;57767;42.068;24.752;2023-06-04T00:28:42;98977.97;;;18.61;69.90
70343;BME280;57767;42.068;24.752;2023-06-04T00:29:44;98984.41;;;18.65;69.78
70343;BME280;57767;42.068;24.752;2023-06-04T00:30:45;98988.66;;;18.61;69.82
70343;BME280;57767;42.068;24.752;2023-06-04T00:31:47;98953.16;;;18.39;69.94
70343;BME280;57767;42.068;24.752;2023-06-04T00:32:49;98991.34;;;18.66;70.09
70343;BME280;57767;42.068;24.752;2023-06-04T00:33:51;98954.03;;;18.49;70.31
70343;BME280;57767;42.068;24.752;2023-06-04T00:34:54;98986.50;;;18.63;70.70
70343;BME280;57767;42.068;24.752;2023-06-04T00:35:57;98990.53;;;18.60;70.79
70343;BME280;57767;42.068;24.752;2023-06-04T00:36:58;98982.50;;;18.60;70.98
70343;BME280;57767;42.068;24.752;2023-06-04T00:38:03;98979.19;;;18.53;70.94
70343;BME280;57767;42.068;24.752;2023-06-04T00:39:04;98980.81;;;18.54;71.13
70343;BME280;57767;42.068;24.752;2023-06-04T00:40:07;98993.13;;;18.55;70.93
70343;BME280;57767;42.068;24.752;2023-06-04T00:41:09;98998.16;;;18.52;71.20
70343;BME280;57767;42.068;24.752;2023-06-04T00:42:10;98992.81;;;18.52;70.81
70343;BME280;57767;42.068;24.752;2023-06-04T00:43:12;98998.22;;;18.57;71.24
70343;BME280;57767;42.068;24.752;2023-06-04T00:44:15;98976.75;;;18.47;70.95
70343;BME280;57767;42.068;24.752;2023-06-04T00:45:17;99000.16;;;18.62;70.79
70343;BME280;57767;42.068;24.752;2023-06-04T00:46:25;98990.00;;;18.64;70.80
70343;BME280;57767;42.068;24.752;2023-06-04T00:47:28;98988.66;;;18.61;70.70
70343;BME280;57767;42.068;24.752;2023-06-04T00:48:30;98992.97;;;18.67;70.82
70343;BME280;57767;42.068;24.752;2023-06-04T00:49:32;98986.00;;;18.61;71.08
70343;BME280;57767;42.068;24.752;2023-06-04T00:50:34;98991.34;;;18.66;70.88
70343;BME280;57767;42.068;24.752;2023-06-04T00:51:37;98962.03;;;18.44;70.83
70343;BME280;57767;42.068;24.752;2023-06-04T00:52:40;98992.97;;;18.67;70.07
70343;BME280;57767;42.068;24.752;2023-06-04T00:53:42;98987.06;;;18.65;70.10
70343;BME280;57767;42.068;24.752;2023-06-04T00:54:44;98994.09;;;18.71;70.39
70343;BME280;57767;42.068;24.752;2023-06-04T00:55:46;98991.41;;;18.71;70.26
70343;BME280;57767;42.068;24.752;2023-06-04T00:56:48;98997.03;;;18.75;70.29
70343;BME280;57767;42.068;24.752;2023-06-04T00:57:50;99002.94;;;18.77;70.05
70343;BME280;57767;42.068;24.752;2023-06-04T00:58:52;98995.47;;;18.79;70.25
70343;BME280;57767;42.068;24.752;2023-06-04T00:59:55;98994.94;;;18.82;69.64
70343;BME280;57767;42.068;24.752;2023-06-04T01:00:59;98992.03;;;18.83;69.55
70343;BME280;57767;42.068;24.752;2023-06-04T01:02:09;98994.44;;;18.85;69.23
70343;BME280;57767;42.068;24.752;2023-06-04T01:03:18;98955.47;;;18.62;69.75
70343;BME280;57767;42.068;24.752;2023-06-04T01:05:57;98989.91;;;18.85;70.37
70343;BME280;57767;42.068;24.752;2023-06-04T01:06:58;98992.03;;;18.88;70.65
70343;BME280;57767;42.068;24.752;2023-06-04T01:08:02;99002.47;;;18.90;70.62
70343;BME280;57767;42.068;24.752;2023-06-04T01:09:04;98997.94;;;18.90;70.53
70343;BME280;57767;42.068;24.752;2023-06-04T01:10:06;98981.31;;;18.83;70.56
70343;BME280;57767;42.068;24.752;2023-06-04T01:11:09;98986.66;;;18.83;69.68
70343;BME280;57767;42.068;24.752;2023-06-04T01:12:11;98996.63;;;18.93;69.47
70343;BME280;57767;42.068;24.752;2023-06-04T01:13:13;98994.75;;;18.93;69.53
70343;BME280;57767;42.068;24.752;2023-06-04T01:14:15;98981.06;;;18.85;69.32
70343;BME280;57767;42.068;24.752;2023-06-04T01:15:20;98997.19;;;18.95;69.06
70343;BME280;57767;42.068;24.752;2023-06-04T01:16:22;99001.47;;;18.96;69.08
70343;BME280;57767;42.068;24.752;2023-06-04T01:17:33;99003.34;;;18.95;69.21
70343;BME280;57767;42.068;24.752;2023-06-04T01:18:41;99007.88;;;18.95;68.90
70343;BME280;57767;42.068;24.752;2023-06-04T01:21:11;99000.66;;;18.95;69.24
70343;BME280;57767;42.068;24.752;2023-06-04T01:23:43;99003.28;;;18.90;67.44
70343;BME280;57767;42.068;24.752;2023-06-04T01:24:52;98997.13;;;18.90;67.60
70343;BME280;57767;42.068;24.752;2023-06-04T01:25:55;98990.66;;;18.81;67.34
70343;BME280;57767;42.068;24.752;2023-06-04T01:26:59;98986.94;;;18.82;67.86
70343;BME280;57767;42.068;24.752;2023-06-04T01:28:02;98993.41;;;18.91;68.28
70343;BME280;57767;42.068;24.752;2023-06-04T01:29:06;98998.75;;;18.91;68.25
70343;BME280;57767;42.068;24.752;2023-06-04T01:30:09;98992.81;;;18.84;68.54
70343;BME280;57767;42.068;24.752;2023-06-04T01:31:13;99001.66;;;18.84;68.58
70343;BME280;57767;42.068;24.752;2023-06-04T01:32:17;99005.34;;;18.78;68.61
70343;BME280;57767;42.068;24.752;2023-06-04T01:33:19;99001.25;;;18.66;69.15
70343;BME280;57767;42.068;24.752;2023-06-04T01:34:21;99003.16;;;18.70;69.16
70343;BME280;57767;42.068;24.752;2023-06-04T01:35:23;98978.78;;;18.62;69.13
70343;BME280;57767;42.068;24.752;2023-06-04T01:36:29;98999.69;;;18.75;69.69
70343;BME280;57767;42.068;24.752;2023-06-04T01:37:31;99001.63;;;18.79;68.91
70343;BME280;57767;42.068;24.752;2023-06-04T01:38:33;98979.66;;;18.72;68.46
70343;BME280;57767;42.068;24.752;2023-06-04T01:39:34;98998.19;;;18.84;68.40
70343;BME280;57767;42.068;24.752;2023-06-04T01:40:36;98970.56;;;18.73;68.53
70343;BME280;57767;42.068;24.752;2023-06-04T01:41:38;98960.31;;;18.65;68.27
70343;BME280;57767;42.068;24.752;2023-06-04T01:42:41;98974.31;;;18.77;67.30
70343;BME280;57767;42.068;24.752;2023-06-04T01:43:43;98975.66;;;18.80;67.38
70343;BME280;57767;42.068;24.752;2023-06-04T01:44:44;98975.56;;;18.65;68.71
70343;BME280;57767;42.068;24.752;2023-06-04T01:45:46;98982.88;;;18.74;68.89
70343;BME280;57767;42.068;24.752;2023-06-04T01:46:48;98997.66;;;18.87;68.53
70343;BME280;57767;42.068;24.752;2023-06-04T01:47:51;98990.97;;;18.89;68.89
70343;BME280;57767;42.068;24.752;2023-06-04T01:48:53;99000.09;;;18.93;68.82
70343;BME280;57767;42.068;24.752;2023-06-04T01:49:55;98962.56;;;18.78;68.46
70343;BME280;57767;42.068;24.752;2023-06-04T01:50:56;99000.16;;;18.99;68.54
70343;BME280;57767;42.068;24.752;2023-06-04T01:51:58;98994.78;;;18.99;68.77
70343;BME280;57767;42.068;24.752;2023-06-04T01:53:00;98972.22;;;18.84;68.81
70343;BME280;57767;42.068;24.752;2023-06-04T01:54:02;98996.94;;;19.02;68.62
70343;BME280;57767;42.068;24.752;2023-06-04T01:55:04;99003.91;;;19.03;68.76
70343;BME280;57767;42.068;24.752;2023-06-04T01:56:06;98962.03;;;18.81;68.07
70343;BME280;57767;42.068;24.752;2023-06-04T01:57:09;98994.50;;;19.00;67.43
70343;BME280;57767;42.068;24.752;2023-06-04T01:58:11;99005.56;;;19.09;66.78
70343;BME280;57767;42.068;24.752;2023-06-04T01:59:13;99007.97;;;19.10;67.09
70343;BME280;57767;42.068;24.752;2023-06-04T02:00:17;99006.91;;;19.11;67.01
70343;BME280;57767;42.068;24.752;2023-06-04T02:01:20;98960.69;;;18.79;67.78
70343;BME280;57767;42.068;24.752;2023-06-04T02:02:22;98989.72;;;19.02;68.38
70343;BME280;57767;42.068;24.752;2023-06-04T02:03:23;99009.03;;;19.14;67.75
70343;BME280;57767;42.068;24.752;2023-06-04T02:04:25;99007.44;;;19.13;67.13
70343;BME280;57767;42.068;24.752;2023-06-04T02:05:27;99018.44;;;19.17;67.64
70343;BME280;57767;42.068;24.752;2023-06-04T02:06:29;98998.59;;;19.08;67.05
70343;BME280;57767;42.068;24.752;2023-06-04T02:07:31;99010.94;;;19.19;67.10
70343;BME280;57767;42.068;24.752;2023-06-04T02:08:34;98989.44;;;19.04;67.48
70343;BME280;57767;42.068;24.752;2023-06-04T02:09:37;98999.38;;;19.08;67.31
70343;BME280;57767;42.068;24.752;2023-06-04T02:10:39;99017.91;;;19.20;67.52
70343;BME280;57767;42.068;24.752;2023-06-04T02:11:40;99019.78;;;19.19;67.25
70343;BME280;57767;42.068;24.752;2023-06-04T02:13:12;99018.44;;;19.17;66.96
70343;BME280;57767;42.068;24.752;2023-06-04T02:14:14;99024.84;;;19.16;67.09
70343;BME280;57767;42.068;24.752;2023-06-04T02:15:15;99022.44;;;19.14;67.20
70343;BME280;57767;42.068;24.752;2023-06-04T02:16:17;99001.75;;;19.00;66.26
70343;BME280;57767;42.068;24.752;2023-06-04T02:17:19;98984.31;;;18.92;65.70
70343;BME280;57767;42.068;24.752;2023-06-04T02:18:22;99025.66;;;19.16;65.76
70343;BME280;57767;42.068;24.752;2023-06-04T02:19:24;99020.03;;;19.18;65.34
70343;BME280;57767;42.068;24.752;2023-06-04T02:20:27;99018.19;;;19.18;65.13
70343;BME280;57767;42.068;24.752;2023-06-04T02:21:29;98998.84;;;19.06;64.67
70343;BME280;57767;42.068;24.752;2023-06-04T02:22:31;99024.09;;;19.20;64.62
70343;BME280;57767;42.068;24.752;2023-06-04T02:23:33;99024.09;;;19.20;64.38
70343;BME280;57767;42.068;24.752;2023-06-04T02:24:35;99028.63;;;19.20;64.37
70343;BME280;57767;42.068;24.752;2023-06-04T02:25:37;99030.75;;;19.18;64.41
70343;BME280;57767;42.068;24.752;2023-06-04T02:26:41;99030.75;;;19.18;64.49
70343;BME280;57767;42.068;24.752;2023-06-04T02:27:42;98988.84;;;18.91;64.76
70343;BME280;57767;42.068;24.752;2023-06-04T02:28:44;99029.13;;;19.17;64.74
70343;BME280;57767;42.068;24.752;2023-06-04T02:29:46;99037.97;;;19.17;63.64
70343;BME280;57767;42.068;24.752;2023-06-04T02:30:48;99036.09;;;19.18;63.45
70343;BME280;57767;42.068;24.752;2023-06-04T02:31:50;99032.38;;;19.19;64.16
70343;BME280;57767;42.068;24.752;2023-06-04T02:32:51;99032.06;;;19.15;64.92
70343;BME280;57767;42.068;24.752;2023-06-04T02:33:55;99025.34;;;19.08;64.49
70343;BME280;57767;42.068;24.752;2023-06-04T02:34:57;99038.75;;;19.13;64.70
70343;BME280;57767;42.068;24.752;2023-06-04T02:35:59;99036.06;;;19.13;64.91
70343;BME280;57767;42.068;24.752;2023-06-04T02:37:02;99035.00;;;19.14;64.66
70343;BME280;57767;42.068;24.752;2023-06-04T02:38:05;99035.00;;;19.14;64.23
70343;BME280;57767;42.068;24.752;2023-06-04T02:39:07;99038.75;;;19.13;63.89
70343;BME280;57767;42.068;24.752;2023-06-04T02:40:09;99043.59;;;19.16;63.74
70343;BME280;57767;42.068;24.752;2023-06-04T02:41:11;99038.50;;;19.14;63.88
70343;BME280;57767;42.068;24.752;2023-06-04T02:42:13;99035.53;;;19.11;64.19
70343;BME280;57767;42.068;24.752;2023-06-04T02:43:15;99054.03;;;19.12;64.08
70343;BME280;57767;42.068;24.752;2023-06-04T02:44:17;99024.22;;;18.99;64.12
70343;BME280;57767;42.068;24.752;2023-06-04T02:45:19;99042.75;;;19.10;64.13
70343;BME280;57767;42.068;24.752;2023-06-04T02:46:20;99016.41;;;18.92;64.36
70343;BME280;57767;42.068;24.752;2023-06-04T02:47:22;99026.38;;;19.02;64.78
70343;BME280;57767;42.068;24.752;2023-06-04T02:48:24;99024.22;;;18.99;64.61
70343;BME280;57767;42.068;24.752;2023-06-04T02:49:26;99044.63;;;19.10;64.31
70343;BME280;57767;42.068;24.752;2023-06-04T02:50:28;99051.84;;;19.09;64.83
70343;BME280;57767;42.068;24.752;2023-06-04T02:51:30;99046.75;;;19.08;64.91
70343;BME280;57767;42.068;24.752;2023-06-04T02:52:32;99048.88;;;19.06;65.05
70343;BME280;57767;42.068;24.752;2023-06-04T02:53:34;99013.94;;;18.80;65.17
70343;BME280;57767;42.068;24.752;2023-06-04T02:54:36;99051.50;;;19.01;65.22
70343;BME280;57767;42.068;24.752;2023-06-04T02:55:38;99055.53;;;18.98;65.48
70343;BME280;57767;42.068;24.752;2023-06-04T02:56:40;99047.72;;;18.91;65.42
70343;BME280;57767;42.068;24.752;2023-06-04T02:57:42;99034.31;;;18.86;65.32
70343;BME280;57767;42.068;24.752;2023-06-04T02:58:54;99030.50;;;18.77;65.06
70343;BME280;57767;42.068;24.752;2023-06-04T02:59:59;99051.44;;;18.90;65.12
70343;BME280;57767;42.068;24.752;2023-06-04T03:01:01;99065.38;;;18.92;65.25
70343;BME280;57767;42.068;24.752;2023-06-04T03:02:04;99031.78;;;18.75;65.67
70343;BME280;57767;42.068;24.752;2023-06-04T03:03:06;99063.78;;;18.91;65.90
70343;BME280;57767;42.068;24.752;2023-06-04T03:04:08;99065.63;;;18.91;66.24
70343;BME280;57767;42.068;24.752;2023-06-04T03:05:13;99061.09;;;18.91;66.07
70343;BME280;57767;42.068;24.752;2023-06-04T03:06:16;99056.81;;;18.90;66.13
70343;BME280;57767;42.068;24.752;2023-06-04T03:07:19;99058.41;;;18.86;66.07
70343;BME280;57767;42.068;24.752;2023-06-04T03:08:22;99034.19;;;18.71;66.30
70343;BME280;57767;42.068;24.752;2023-06-04T03:09:24;99030.16;;;18.69;66.61
70343;BME280;57767;42.068;24.752;2023-06-04T03:10:26;99068.53;;;18.84;66.82
70343;BME280;57767;42.068;24.752;2023-06-04T03:11:28;99068.28;;;18.86;66.84
70343;BME280;57767;42.068;24.752;2023-06-04T03:12:30;99068.53;;;18.84;66.70
70343;BME280;57767;42.068;24.752;2023-06-04T03:13:32;99066.38;;;18.81;66.86
70343;BME280;57767;42.068;24.752;2023-06-04T03:14:33;99062.59;;;18.77;66.74
70343;BME280;57767;42.068;24.752;2023-06-04T03:15:35;99077.13;;;18.86;66.54
70343;BME280;57767;42.068;24.752;2023-06-04T03:16:40;99040.56;;;18.65;66.15
70343;BME280;57767;42.068;24.752;2023-06-04T03:17:42;99078.69;;;18.82;66.40
70343;BME280;57767;42.068;24.752;2023-06-04T03:18:45;99077.03;;;18.76;66.87
70343;BME280;57767;42.068;24.752;2023-06-04T03:19:47;99052.47;;;18.52;67.32
70343;BME280;57767;42.068;24.752;2023-06-04T03:20:50;99081.78;;;18.69;67.69
70343;BME280;57767;42.068;24.752;2023-06-04T03:21:52;99075.84;;;18.62;67.79
70343;BME280;57767;42.068;24.752;2023-06-04T03:22:55;99089.81;;;18.69;67.98
70343;BME280;57767;42.068;24.752;2023-06-04T03:23:57;99062.88;;;18.49;67.48
70343;BME280;57767;42.068;24.752;2023-06-04T03:24:58;99090.19;;;18.56;68.03
70343;BME280;57767;42.068;24.752;2023-06-04T03:26:01;99089.63;;;18.49;68.22
70343;BME280;57767;42.068;24.752;2023-06-04T03:27:05;99080.38;;;18.35;68.93
70343;BME280;57767;42.068;24.752;2023-06-04T03:28:07;99088.41;;;18.35;69.52
70343;BME280;57767;42.068;24.752;2023-06-04T03:29:08;99085.09;;;18.27;69.63
70343;BME280;57767;42.068;24.752;2023-06-04T03:30:11;99067.28;;;18.11;69.66
70343;BME280;57767;42.068;24.752;2023-06-04T03:31:12;99063.56;;;18.12;69.71
70343;BME280;57767;42.068;24.752;2023-06-04T03:32:14;99093.19;;;18.33;69.65
70343;BME280;57767;42.068;24.752;2023-06-04T03:33:17;99081.94;;;18.31;69.71
70343;BME280;57767;42.068;24.752;2023-06-04T03:34:19;99100.41;;;18.32;69.86
70343;BME280;57767;42.068;24.752;2023-06-04T03:35:22;99090.44;;;18.27;69.03
70343;BME280;57767;42.068;24.752;2023-06-04T03:36:23;99088.16;;;18.36;69.55
70343;BME280;57767;42.068;24.752;2023-06-04T03:37:33;99051.31;;;18.16;69.64
70343;BME280;57767;42.068;24.752;2023-06-04T03:38:35;99094.59;;;18.40;69.56
70343;BME280;57767;42.068;24.752;2023-06-04T03:39:36;99098.63;;;18.43;69.56
70343;BME280;57767;42.068;24.752;2023-06-04T03:40:38;99100.81;;;18.46;69.77
70343;BME280;57767;42.068;24.752;2023-06-04T03:41:41;99073.91;;;18.31;68.65
70343;BME280;57767;42.068;24.752;2023-06-04T03:42:43;99102.97;;;18.49;68.44
70343;BME280;57767;42.068;24.752;2023-06-04T03:43:44;99107.31;;;18.55;67.85
70343;BME280;57767;42.068;24.752;2023-06-04T03:44:46;99103.09;;;18.59;67.62
70343;BME280;57767;42.068;24.752;2023-06-04T03:45:48;99086.41;;;18.52;67.86
70343;BME280;57767;42.068;24.752;2023-06-04T03:46:50;99098.56;;;18.59;67.93
70343;BME280;57767;42.068;24.752;2023-06-04T03:47:52;99087.06;;;18.59;68.56
70343;BME280;57767;42.068;24.752;2023-06-04T03:48:54;99065.81;;;18.52;68.10
70343;BME280;57767;42.068;24.752;2023-06-04T03:49:56;99078.50;;;18.62;68.15
70343;BME280;57767;42.068;24.752;2023-06-04T03:50:58;99093.94;;;18.82;68.53
70343;BME280;57767;42.068;24.752;2023-06-04T03:52:00;99098.22;;;18.83;68.24
70343;BME280;57767;42.068;24.752;2023-06-04T03:53:02;99088.34;;;18.83;67.65
70343;BME280;57767;42.068;24.752;2023-06-04T03:54:06;99096.66;;;18.87;67.40
70343;BME280;57767;42.068;24.752;2023-06-04T03:55:08;99080.00;;;18.80;66.72
70343;BME280;57767;42.068;24.752;2023-06-04T03:56:10;99090.50;;;18.86;66.27
70343;BME280;57767;42.068;24.752;2023-06-04T03:57:12;99095.13;;;18.96;66.26
70343;BME280;57767;42.068;24.752;2023-06-04T03:58:15;99101.84;;;18.99;66.64
70343;BME280;57767;42.068;24.752;2023-06-04T03:59:17;99094.06;;;19.02;66.88
70343;BME280;57767;42.068;24.752;2023-06-04T04:00:19;99102.41;;;19.06;66.88
70343;BME280;57767;42.068;24.752;2023-06-04T04:01:21;99101.66;;;19.10;66.91
70343;BME280;57767;42.068;24.752;2023-06-04T04:02:24;99077.22;;;19.02;66.54
70343;BME280;57767;42.068;24.752;2023-06-04T04:03:27;99106.75;;;19.17;66.36
70343;BME280;57767;42.068;24.752;2023-06-04T04:04:33;99101.97;;;19.19;66.03
70343;BME280;57767;42.068;24.752;2023-06-04T04:05:34;99100.34;;;19.18;66.08
70343;BME280;57767;42.068;24.752;2023-06-04T04:06:37;99106.81;;;19.22;66.39
70343;BME280;57767;42.068;24.752;2023-06-04T04:07:39;99089.66;;;19.18;66.98
70343;BME280;57767;42.068;24.752;2023-06-04T04:08:41;99103.34;;;19.26;66.50
70343;BME280;57767;42.068;24.752;2023-06-04T04:09:45;99110.31;;;19.27;66.29
70343;BME280;57767;42.068;24.752;2023-06-04T04:10:47;99109.25;;;19.28;66.37
70343;BME280;57767;42.068;24.752;2023-06-04T04:11:49;99111.41;;;19.31;66.75
70343;BME280;57767;42.068;24.752;2023-06-04T04:12:51;99109.03;;;19.35;66.32
70343;BME280;57767;42.068;24.752;2023-06-04T04:13:56;99101.78;;;19.30;66.18
70343;BME280;57767;42.068;24.752;2023-06-04T04:14:58;99107.44;;;19.39;66.32
70343;BME280;57767;42.068;24.752;2023-06-04T04:16:00;99097.78;;;19.33;66.40
70343;BME280;57767;42.068;24.752;2023-06-04T04:17:02;99117.63;;;19.42;66.81
70343;BME280;57767;42.068;24.752;2023-06-04T04:18:04;99125.16;;;19.45;65.75
70343;BME280;57767;42.068;24.752;2023-06-04T04:19:06;99119.56;;;19.47;64.97
70343;BME280;57767;42.068;24.752;2023-06-04T04:20:09;99124.59;;;19.43;64.91
70343;BME280;57767;42.068;24.752;2023-06-04T04:21:11;99120.88;;;19.44;65.30
70343;BME280;57767;42.068;24.752;2023-06-04T04:22:13;99122.22;;;19.47;65.39
70343;BME280;57767;42.068;24.752;2023-06-04T04:23:18;99112.03;;;19.44;65.32
70343;BME280;57767;42.068;24.752;2023-06-04T04:24:23;99113.06;;;19.38;65.27
70343;BME280;57767;42.068;24.752;2023-06-04T04:25:29;99109.84;;;19.36;65.09
70343;BME280;57767;42.068;24.752;2023-06-04T04:26:34;99113.34;;;19.41;65.61
70343;BME280;57767;42.068;24.752;2023-06-04T04:27:35;99129.50;;;19.51;66.22
70343;BME280;57767;42.068;24.752;2023-06-04T04:28:42;99113.09;;;19.43;65.74
70343;BME280;57767;42.068;24.752;2023-06-04T04:29:44;99131.16;;;19.57;65.59
70343;BME280;57767;42.068;24.752;2023-06-04T04:30:49;99129.84;;;19.60;65.73
70343;BME280;57767;42.068;24.752;2023-06-04T04:31:51;99130.09;;;19.63;65.73
70343;BME280;57767;42.068;24.752;2023-06-04T04:32:53;99129.84;;;19.65;65.84
70343;BME280;57767;42.068;24.752;2023-06-04T04:33:55;99128.78;;;19.66;64.09
70343;BME280;57767;42.068;24.752;2023-06-04T04:34:57;99130.94;;;19.69;64.27
70343;BME280;57767;42.068;24.752;2023-06-04T04:36:00;99130.69;;;19.71;64.45
70343;BME280;57767;42.068;24.752;2023-06-04T04:37:03;99122.63;;;19.65;64.64
70343;BME280;57767;42.068;24.752;2023-06-04T04:38:05;99109.22;;;19.65;64.81
70343;BME280;57767;42.068;24.752;2023-06-04T04:39:07;99137.41;;;19.78;65.04
70343;BME280;57767;42.068;24.752;2023-06-04T04:40:09;99143.88;;;19.82;65.82
70343;BME280;57767;42.068;24.752;2023-06-04T04:41:11;99140.38;;;19.82;66.04
70343;BME280;57767;42.068;24.752;2023-06-04T04:42:13;99133.41;;;19.81;66.21
70343;BME280;57767;42.068;24.752;2023-06-04T04:43:15;99143.63;;;19.89;66.14
70343;BME280;57767;42.068;24.752;2023-06-04T04:44:17;99145.22;;;19.90;66.13
70343;BME280;57767;42.068;24.752;2023-06-04T04:45:19;99135.31;;;19.85;65.85
70343;BME280;57767;42.068;24.752;2023-06-04T04:46:21;99143.13;;;19.97;65.35
70343;BME280;57767;42.068;24.752;2023-06-04T04:47:23;99135.34;;;19.95;65.36
70343;BME280;57767;42.068;24.752;2023-06-04T04:48:25;99139.06;;;19.89;65.68
70343;BME280;57767;42.068;24.752;2023-06-04T04:49:27;99145.56;;;19.98;65.79
70343;BME280;57767;42.068;24.752;2023-06-04T04:50:29;99144.25;;;20.01;64.88
70343;BME280;57767;42.068;24.752;2023-06-04T04:51:33;99131.06;;;19.94;64.80
70343;BME280;57767;42.068;24.752;2023-06-04T04:52:34;99145.84;;;20.07;64.87
70343;BME280;57767;42.068;24.752;2023-06-04T04:53:36;99142.66;;;20.10;65.38
70343;BME280;57767;42.068;24.752;2023-06-04T04:54:38;99143.22;;;20.12;65.41
70343;BME280;57767;42.068;24.752;2023-06-04T04:55:40;99138.88;;;20.06;65.29
70343;BME280;57767;42.068;24.752;2023-06-04T04:56:41;99132.16;;;20.03;65.34
70343;BME280;57767;42.068;24.752;2023-06-04T04:57:43;99154.44;;;20.14;65.02
70343;BME280;57767;42.068;24.752;2023-06-04T04:58:45;99111.75;;;19.92;63.78
70343;BME280;57767;42.068;24.752;2023-06-04T04:59:47;99134.63;;;20.10;64.53
70343;BME280;57767;42.068;24.752;2023-06-04T05:00:49;99138.34;;;20.09;64.08
70343;BME280;57767;42.068;24.752;2023-06-04T05:01:51;99144.81;;;20.18;63.96
70343;BME280;57767;42.068;24.752;2023-06-04T05:02:53;99156.63;;;20.27;62.59
70343;BME280;57767;42.068;24.752;2023-06-04T05:03:55;99155.56;;;20.28;62.58
70343;BME280;57767;42.068;24.752;2023-06-04T05:04:56;99160.69;;;20.30;62.85
70343;BME280;57767;42.068;24.752;2023-06-04T05:05:58;99163.63;;;20.28;62.12
70343;BME280;57767;42.068;24.752;2023-06-04T05:07:00;99163.09;;;20.31;62.68
70343;BME280;57767;42.068;24.752;2023-06-04T05:08:02;99131.66;;;20.17;63.46
70343;BME280;57767;42.068;24.752;2023-06-04T05:09:04;99165.03;;;20.36;63.64
70343;BME280;57767;42.068;24.752;2023-06-04T05:10:06;99138.16;;;20.26;61.93
70343;BME280;57767;42.068;24.752;2023-06-04T05:11:08;99134.13;;;20.28;60.93
70343;BME280;57767;42.068;24.752;2023-06-04T05:12:10;99155.41;;;20.50;60.72
70343;BME280;57767;42.068;24.752;2023-06-04T05:13:12;99154.06;;;20.53;61.17
70343;BME280;57767;42.068;24.752;2023-06-04T05:14:14;99159.19;;;20.59;61.41
70343;BME280;57767;42.068;24.752;2023-06-04T05:15:16;99162.41;;;20.66;60.97
70343;BME280;57767;42.068;24.752;2023-06-04T05:16:19;99121.06;;;20.52;60.58
70343;BME280;57767;42.068;24.752;2023-06-04T05:17:22;99113.81;;;20.48;60.47
70343;BME280;57767;42.068;24.752;2023-06-04T05:18:37;99155.97;;;20.78;60.82
70343;BME280;57767;42.068;24.752;2023-06-04T05:19:42;99154.91;;;20.84;60.67
70343;BME280;57767;42.068;24.752;2023-06-04T05:20:46;99168.88;;;20.86;59.88
70343;BME280;57767;42.068;24.752;2023-06-04T05:21:48;99165.66;;;20.84;60.33
70343;BME280;57767;42.068;24.752;2023-06-04T05:22:50;99164.88;;;20.88;60.73
70343;BME280;57767;42.068;24.752;2023-06-04T05:23:53;99172.34;;;20.91;60.85
70343;BME280;57767;42.068;24.752;2023-06-04T05:24:54;99163.50;;;20.91;59.26
70343;BME280;57767;42.068;24.752;2023-06-04T05:25:57;99144.97;;;20.79;59.62
70343;BME280;57767;42.068;24.752;2023-06-04T05:26:59;99171.31;;;20.97;60.18
70343;BME280;57767;42.068;24.752;2023-06-04T05:28:00;99139.34;;;20.81;61.22
70343;BME280;57767;42.068;24.752;2023-06-04T05:29:03;99167.00;;;21.06;61.85
70343;BME280;57767;42.068;24.752;2023-06-04T05:30:06;99179.34;;;21.18;61.16
70343;BME280;57767;42.068;24.752;2023-06-04T05:31:08;99176.44;;;21.24;60.61
70343;BME280;57767;42.068;24.752;2023-06-04T05:32:10;99179.13;;;21.24;60.29